createdAt,value
2023-03-18T00:02:34.432Z,14.96
2023-03-18T00:07:37.567Z,14.92
2023-03-18T00:12:43.279Z,14.97
2023-03-18T00:17:46.584Z,15.01
2023-03-18T00:22:50.987Z,15.23
2023-03-18T00:27:55.052Z,15.36
2023-03-18T00:32:59.045Z,15.26
2023-03-18T00:38:03.966Z,15.35
2023-03-18T00:43:09.222Z,15.30
2023-03-18T00:48:12.180Z,15.02
2023-03-18T00:53:15.287Z,15.34
2023-03-18T00:58:20.085Z,15.41
2023-03-18T01:03:25.786Z,15.43
2023-03-18T01:08:29.805Z,15.36
2023-03-18T01:13:35.659Z,15.46
2023-03-18T01:18:40.616Z,15.38
2023-03-18T01:23:43.486Z,14.81
2023-03-18T01:28:48.081Z,14.92
2023-03-18T01:33:50.949Z,14.88
2023-03-18T01:38:53.737Z,14.85
2023-03-18T01:43:58.306Z,14.79
2023-03-18T01:49:05.459Z,14.97
2023-03-18T01:54:10.313Z,14.96
2023-03-18T01:59:16.256Z,15.18
2023-03-18T02:04:21.319Z,15.22
2023-03-18T02:09:24.126Z,15.38
2023-03-18T02:14:28.730Z,15.40
2023-03-18T02:19:42.403Z,15.49
2023-03-18T02:24:52.811Z,15.05
2023-03-18T02:30:01.568Z,15.25
2023-03-18T02:35:10.952Z,15.42
2023-03-18T02:40:17.608Z,15.58
2023-03-18T02:45:36.905Z,15.35
2023-03-18T02:50:45.387Z,15.24
2023-03-18T02:55:48.580Z,15.50
2023-03-18T03:00:52.854Z,15.04
2023-03-18T03:05:56.269Z,15.20
2023-03-18T03:11:00.340Z,15.00
2023-03-18T03:16:08.114Z,14.24
2023-03-18T03:21:12.929Z,14.77
2023-03-18T03:26:15.994Z,14.66
2023-03-18T03:31:20.457Z,14.57
2023-03-18T03:36:23.304Z,14.21
2023-03-18T03:41:26.115Z,14.70
2023-03-18T03:46:30.515Z,15.28
2023-03-18T03:51:34.570Z,15.56
2023-03-18T03:56:37.576Z,15.46
2023-03-18T04:01:41.726Z,15.78
2023-03-18T04:06:44.477Z,15.45
2023-03-18T04:11:47.926Z,15.20
2023-03-18T04:16:53.087Z,15.56
2023-03-18T04:21:56.667Z,15.44
2023-03-18T04:27:00.565Z,15.33
2023-03-18T04:32:05.177Z,15.28
2023-03-18T04:37:10.047Z,15.03
2023-03-18T04:42:17.784Z,14.75
2023-03-18T04:47:22.796Z,15.02
2023-03-18T04:52:27.869Z,14.84
2023-03-18T04:57:31.689Z,15.17
2023-03-18T05:02:35.930Z,14.86
2023-03-18T05:07:40.148Z,14.56
2023-03-18T05:12:48.551Z,15.00
2023-03-18T05:17:56.664Z,14.55
2023-03-18T05:22:59.677Z,14.79
2023-03-18T05:28:11.360Z,14.82
2023-03-18T05:33:26.674Z,15.38
2023-03-18T05:38:32.455Z,15.26
2023-03-18T05:43:36.671Z,15.50
2023-03-18T05:48:41.945Z,15.16
2023-03-18T05:53:45.440Z,14.85
2023-03-18T05:58:56.119Z,14.77
2023-03-18T06:04:07.306Z,15.17
2023-03-18T06:09:11.991Z,15.30
2023-03-18T06:14:17.432Z,15.11
2023-03-18T06:19:22.949Z,15.35
2023-03-18T06:24:26.184Z,15.24
2023-03-18T06:29:31.600Z,14.62
2023-03-18T06:34:43.445Z,15.13
2023-03-18T06:39:47.067Z,15.63
2023-03-18T06:44:51.773Z,15.74
2023-03-18T06:50:01.678Z,15.64
2023-03-18T06:55:09.399Z,16.42
2023-03-18T07:00:16.286Z,16.11
2023-03-18T07:05:21.576Z,16.72
2023-03-18T07:10:28.263Z,16.28
2023-03-18T07:15:39.137Z,16.27
2023-03-18T07:20:43.769Z,16.57
2023-03-18T07:25:46.865Z,15.64
2023-03-18T07:30:51.934Z,16.08
2023-03-18T07:35:57.620Z,15.98
2023-03-18T07:41:00.703Z,16.59
2023-03-18T07:46:04.487Z,16.11
2023-03-18T07:51:08.626Z,16.33
2023-03-18T07:56:12.289Z,16.67
2023-03-18T08:01:18.431Z,16.80
2023-03-18T08:06:22.781Z,16.86
2023-03-18T08:11:25.761Z,16.72
2023-03-18T08:16:28.580Z,16.72
2023-03-18T08:21:32.783Z,16.60
2023-03-18T08:26:35.551Z,16.34
2023-03-18T08:31:38.767Z,16.44
2023-03-18T08:36:43.577Z,17.29
2023-03-18T08:41:46.300Z,16.94
2023-03-18T08:46:49.280Z,16.48
2023-03-18T08:51:53.867Z,16.15
2023-03-18T08:56:56.794Z,15.80
2023-03-18T09:01:59.611Z,16.63
2023-03-18T09:07:04.468Z,15.92
2023-03-18T09:12:08.032Z,16.56
2023-03-18T09:17:11.133Z,16.04
2023-03-18T09:22:15.820Z,15.89
2023-03-18T09:27:18.803Z,15.58
2023-03-18T09:32:22.080Z,16.57
2023-03-18T09:37:27.928Z,16.52
2023-03-18T09:42:45.615Z,16.78
2023-03-18T09:48:01.593Z,17.38
2023-03-18T09:53:15.371Z,17.35
2023-03-18T09:58:24.627Z,16.96
2023-03-18T10:03:34.933Z,17.56
2023-03-18T10:08:50.965Z,17.66
2023-03-18T10:13:59.878Z,17.71
2023-03-18T10:19:03.403Z,18.58
2023-03-18T10:24:22.303Z,18.51
2023-03-18T10:29:40.592Z,18.05
2023-03-18T10:34:56.984Z,17.78
2023-03-18T10:40:01.499Z,18.35
2023-03-18T10:45:12.142Z,20.16
2023-03-18T10:50:20.731Z,20.26
2023-03-18T10:55:31.126Z,19.98
2023-03-18T11:00:35.676Z,19.05
2023-03-18T11:05:39.347Z,19.26
2023-03-18T11:10:47.139Z,20.01
2023-03-18T11:15:51.911Z,18.96
2023-03-18T11:21:00.683Z,19.83
2023-03-18T11:26:09.565Z,19.46
2023-03-18T11:31:19.053Z,19.90
2023-03-18T11:36:25.263Z,18.80
2023-03-18T11:41:30.346Z,20.27
2023-03-18T11:46:37.696Z,19.93
2023-03-18T11:51:47.632Z,20.37
2023-03-18T11:56:57.286Z,21.12
2023-03-18T12:02:30.934Z,20.17
2023-03-18T12:07:49.417Z,20.21
2023-03-18T12:13:03.568Z,19.98
2023-03-18T12:18:18.670Z,20.61
2023-03-18T12:23:41.197Z,20.70
2023-03-18T12:29:04.822Z,20.19
2023-03-18T12:34:16.881Z,20.46
2023-03-18T12:40:06.223Z,19.71
2023-03-18T12:45:15.296Z,19.57
2023-03-18T12:50:21.869Z,19.77
2023-03-18T12:55:29.417Z,19.73
2023-03-18T13:00:39.957Z,20.18
2023-03-18T13:05:46.411Z,20.98
2023-03-18T13:10:57.176Z,21.87
2023-03-18T13:16:04.628Z,21.68
2023-03-18T13:21:09.552Z,20.69
2023-03-18T13:26:22.465Z,20.87
2023-03-18T13:31:39.294Z,21.28
2023-03-18T13:37:07.307Z,20.97
2023-03-18T13:42:26.468Z,20.59
2023-03-18T13:47:37.685Z,20.10
2023-03-18T13:52:44.011Z,20.15
2023-03-18T13:57:49.312Z,19.80
2023-03-18T14:03:07.788Z,20.92
2023-03-18T14:08:44.566Z,20.25
2023-03-18T14:13:51.743Z,20.41
2023-03-18T14:18:59.699Z,20.12
2023-03-18T14:24:07.607Z,20.49
2023-03-18T14:29:23.212Z,20.33
2023-03-18T14:34:33.472Z,19.97
2023-03-18T14:39:39.929Z,20.47
2023-03-18T14:44:47.375Z,20.22
2023-03-18T14:49:55.610Z,20.28
2023-03-18T14:55:03.471Z,20.75
2023-03-18T15:00:08.718Z,21.16
2023-03-18T15:05:17.043Z,21.11
2023-03-18T15:10:24.475Z,20.50
2023-03-18T15:15:28.355Z,19.94
2023-03-18T15:20:36.477Z,19.93
2023-03-18T15:25:42.504Z,19.66
2023-03-18T15:30:54.114Z,20.02
2023-03-18T15:36:05.850Z,19.65
2023-03-18T15:41:12.742Z,19.67
2023-03-18T15:46:18.663Z,20.61
2023-03-18T15:51:29.914Z,20.96
2023-03-18T15:56:35.425Z,20.34
2023-03-18T16:01:39.821Z,20.37
2023-03-18T16:06:44.250Z,20.57
2023-03-18T16:11:49.514Z,21.06
2023-03-18T16:16:53.119Z,20.59
2023-03-18T16:21:59.811Z,19.57
2023-03-18T16:27:05.013Z,19.45
2023-03-18T16:32:12.260Z,19.47
2023-03-18T16:37:22.385Z,19.12
2023-03-18T16:42:27.137Z,19.42
2023-03-18T16:47:29.910Z,19.15
2023-03-18T16:52:34.043Z,19.10
2023-03-18T16:57:40.751Z,18.67
2023-03-18T17:02:43.993Z,18.56
2023-03-18T17:07:48.784Z,18.44
2023-03-18T17:12:55.391Z,18.20
2023-03-18T17:17:59.683Z,18.23
2023-03-18T17:23:04.601Z,18.09
2023-03-18T17:28:08.394Z,17.90
2023-03-18T17:33:21.850Z,17.94
2023-03-18T17:38:26.116Z,18.09
2023-03-18T17:43:30.901Z,18.30
2023-03-18T17:48:35.006Z,18.20
2023-03-18T17:53:41.454Z,18.26
2023-03-18T17:58:46.741Z,18.09
2023-03-18T18:03:49.657Z,17.98
2023-03-18T18:08:56.098Z,17.85
2023-03-18T18:14:04.163Z,17.88
2023-03-18T18:19:07.528Z,17.85
2023-03-18T18:24:19.351Z,17.95
2023-03-18T18:29:24.002Z,17.95
2023-03-18T18:34:26.860Z,17.84
2023-03-18T18:39:31.081Z,17.99
2023-03-18T18:44:33.843Z,18.21
2023-03-18T18:49:36.739Z,18.06
2023-03-18T18:54:41.816Z,18.14
2023-03-18T18:59:44.624Z,18.06
2023-03-18T19:04:47.458Z,18.11
2023-03-18T19:09:52.109Z,18.03
2023-03-18T19:14:54.896Z,18.17
2023-03-18T19:19:58.416Z,17.82
2023-03-18T19:25:02.563Z,17.73
2023-03-18T19:30:20.176Z,17.73
2023-03-18T19:35:23.201Z,17.65
2023-03-18T19:40:31.700Z,17.26
2023-03-18T19:45:34.768Z,17.23
2023-03-18T19:50:37.644Z,17.14
2023-03-18T19:55:42.567Z,17.26
2023-03-18T20:00:45.416Z,17.05
2023-03-18T20:05:49.012Z,16.97
2023-03-18T20:10:53.103Z,17.08
2023-03-18T20:15:56.187Z,17.06
2023-03-18T20:20:59.277Z,16.92
2023-03-18T20:26:03.419Z,16.77
2023-03-18T20:31:06.435Z,16.85
2023-03-18T20:36:16.284Z,16.84
2023-03-18T20:41:21.767Z,17.01
2023-03-18T20:46:25.700Z,17.10
2023-03-18T20:51:33.149Z,17.14
2023-03-18T20:56:37.315Z,17.15
2023-03-18T21:01:40.432Z,16.93
2023-03-18T21:06:44.046Z,17.01
2023-03-18T21:11:48.204Z,17.15
2023-03-18T21:16:51.805Z,17.61
2023-03-18T21:21:54.655Z,17.11
2023-03-18T21:27:04.769Z,16.90
2023-03-18T21:32:14.571Z,17.17
2023-03-18T21:37:18.654Z,17.29
2023-03-18T21:42:25.042Z,17.12
2023-03-18T21:47:28.062Z,17.02
2023-03-18T21:52:32.528Z,16.84
2023-03-18T21:57:37.089Z,16.90
2023-03-18T22:02:39.892Z,16.74
2023-03-18T22:07:43.043Z,16.70
2023-03-18T22:12:47.216Z,16.54
2023-03-18T22:17:50.278Z,16.33
2023-03-18T22:22:53.170Z,16.14
2023-03-18T22:27:57.523Z,15.90
2023-03-18T22:33:02.493Z,15.89
2023-03-18T22:38:05.318Z,15.87
2023-03-18T22:43:23.344Z,15.93
2023-03-18T22:48:26.715Z,16.39
2023-03-18T22:53:33.101Z,16.63
2023-03-18T22:58:37.355Z,16.52
2023-03-18T23:03:43.824Z,16.44
2023-03-18T23:08:49.805Z,16.62
2023-03-18T23:13:54.551Z,16.23
2023-03-18T23:18:57.317Z,15.95
2023-03-18T23:24:00.021Z,15.80
2023-03-18T23:29:04.166Z,15.96
2023-03-18T23:34:06.932Z,15.86
2023-03-18T23:39:10.150Z,15.88
2023-03-18T23:44:14.253Z,16.00
2023-03-18T23:49:18.072Z,15.85
2023-03-18T23:54:20.960Z,15.70
2023-03-18T23:59:25.067Z,15.27
